Fortescue, Missouri
Current Conditions -  °F | °C
As of 8:53 AM on Friday 24 Oct 2014 (Local Time) from KFNB Reporting Station
Haze Haze  
Wind Chill: 59°   Ceiling: Unl
Heat Index: 59°   Visibility: 5mi
Dew Point: 57°   Wind: 9mph
Humidity: 93%   Direction: 180°S
Pressure: 29.99"   Gusts: NA
Location:  40.1428°N, 95.3614°W
Report Text: KFNB 241353Z AUTO 18008KT 5SM BR CLR 15/14 A2999 RMK AO2 SLP152 T01500139
Loading
Personal Weather Stations






























Interactive Weather Map
Tropical Storm Tracking
New forecast layout! Learn more

10-Day Weather Forecast

Advertisements
Track Severe Weather on mobile